Time;durP1;ratioP1;P1;durP2;ratioP2;P2;SDS_P1;SDS_P2;PMS_P1;PMS_P2;Temp;Humidity;BMP_temperature;BMP_pressure;BME280_temperature;BME280_humidity;BME280_pressure;Samples;Min_cycle;Max_cycle;Signal;HPM_P1;HPM_P2
2022/11/24 00:01:59;;;;;;;14.00;2.57;;;;;;;-145.69;100.00;52654.31;5094668;28;20220;-79
2022/11/24 00:04:26;;;;;;;12.70;2.97;;;;;;;-145.69;100.00;52662.22;5094762;28;20237;-79
2022/11/24 00:06:53;;;;;;;5.93;1.93;;;;;;;-145.69;100.00;52656.28;5094777;28;20198;-79
2022/11/24 00:09:19;;;;;;;5.27;1.63;;;;;;;-145.69;100.00;52670.16;5094379;28;20220;-80
2022/11/24 00:11:46;;;;;;;12.37;1.87;;;;;;;-145.69;100.00;52676.09;5094292;28;20194;-80
2022/11/24 00:14:14;;;;;;;5.60;1.73;;;;;;;-145.69;100.00;52672.13;5094571;28;20197;-79
2022/11/24 00:16:40;;;;;;;6.20;2.37;;;;;;;-145.69;100.00;52682.03;5094403;28;20198;-79
2022/11/24 00:19:08;;;;;;;8.10;1.70;;;;;;;-145.69;100.00;52664.22;5094081;28;20194;-79
2022/11/24 00:21:36;;;;;;;7.67;1.53;;;;;;;-145.69;100.00;52662.22;5094236;28;20645;-80
2022/11/24 00:24:03;;;;;;;4.53;1.80;;;;;;;-145.69;100.00;52666.19;5093630;28;20218;-80
2022/11/24 00:26:31;;;;;;;5.33;1.80;;;;;;;-145.69;100.00;52666.19;5094212;28;20201;-80
2022/11/24 00:29:00;;;;;;;9.13;1.90;;;;;;;-145.69;100.00;52646.41;5093895;28;20236;-79
2022/11/24 00:31:30;;;;;;;6.77;1.90;;;;;;;-145.69;100.00;52674.13;5094327;28;20202;-80
2022/11/24 00:33:58;;;;;;;9.10;1.90;;;;;;;-145.69;100.00;52664.22;5094234;28;20226;-80
2022/11/24 00:36:27;;;;;;;11.90;2.50;;;;;;;-145.69;100.00;52654.31;5093837;28;20204;-80
2022/11/24 00:38:54;;;;;;;11.27;2.93;;;;;;;-145.69;100.00;52670.16;5094130;28;20200;-79
2022/11/24 00:41:21;;;;;;;6.90;2.00;;;;;;;-145.69;100.00;52640.44;5093919;28;20210;-79
2022/11/24 00:43:48;;;;;;;11.00;2.80;;;;;;;-145.69;100.00;52664.22;5093648;28;20244;-80
2022/11/24 00:46:14;;;;;;;6.93;0.93;;;;;;;-145.69;100.00;52666.19;5093826;28;20198;-80
2022/11/24 00:48:42;;;;;;;6.20;1.67;;;;;;;-145.69;100.00;52628.56;5093621;28;20198;-79
2022/11/24 00:51:10;;;;;;;4.43;1.03;;;;;;;-145.69;100.00;52670.16;5093923;28;20199;-80
2022/11/24 00:53:37;;;;;;;4.30;1.50;;;;;;;-145.69;100.00;52682.03;5093818;28;20369;-80
2022/11/24 00:56:04;;;;;;;4.20;1.60;;;;;;;-145.69;100.00;52682.03;5093681;28;20202;-79
2022/11/24 00:58:31;;;;;;;4.93;1.20;;;;;;;-145.69;100.00;52656.28;5092682;28;20201;-80
2022/11/24 01:01:03;;;;;;;7.73;1.40;;;;;;;-145.69;100.00;52642.44;5093274;28;20660;-80
2022/11/24 01:03:30;;;;;;;2.10;1.00;;;;;;;-145.69;100.00;52646.41;5092778;28;20225;-80
2022/11/24 01:06:02;;;;;;;6.17;1.30;;;;;;;-145.69;100.00;52634.50;5092150;28;20228;-79
2022/11/24 01:08:29;;;;;;;3.90;1.20;;;;;;;-145.69;100.00;52666.19;5093411;28;20213;-80
2022/11/24 01:11:06;;;;;;;5.53;1.40;;;;;;;-145.69;100.00;52682.03;5093001;28;20202;-79
2022/11/24 01:13:33;;;;;;;6.27;1.50;;;;;;;-145.69;100.00;52662.22;5093433;28;20197;-79
2022/11/24 01:15:59;;;;;;;5.83;1.30;;;;;;;-145.69;100.00;52670.16;5073953;28;20566;-80
2022/11/24 01:18:26;;;;;;;6.63;0.97;;;;;;;-145.69;100.00;52628.56;5073207;28;20199;-79
2022/11/24 01:20:52;;;;;;;3.20;1.33;;;;;;;-145.69;100.00;52648.38;5089609;28;20206;-80
2022/11/24 01:23:20;;;;;;;5.17;1.00;;;;;;;-145.69;100.00;52654.31;5092844;28;20218;-80
2022/11/24 01:25:47;;;;;;;4.07;1.00;;;;;;;-145.69;100.00;52628.56;5093204;28;20221;-80
2022/11/24 01:28:14;;;;;;;5.63;1.17;;;;;;;-145.69;100.00;52654.31;5093427;28;20194;-80
2022/11/24 01:30:40;;;;;;;6.73;1.30;;;;;;;-145.69;100.00;52638.47;5092612;28;20194;-79
2022/11/24 01:33:07;;;;;;;8.33;1.27;;;;;;;-145.69;100.00;52666.19;5093103;28;20241;-80
2022/11/24 01:35:33;;;;;;;8.43;1.20;;;;;;;-145.69;100.00;52646.41;5093083;28;20204;-79
2022/11/24 01:38:00;;;;;;;6.07;1.10;;;;;;;-145.69;100.00;52622.63;5093054;28;20201;-79
2022/11/24 01:40:28;;;;;;;5.73;1.30;;;;;;;-145.69;100.00;52664.22;5092948;28;20198;-79
2022/11/24 01:42:54;;;;;;;4.40;1.30;;;;;;;-145.69;100.00;52662.22;5089382;28;20201;-80
2022/11/24 01:45:31;;;;;;;4.07;1.20;;;;;;;-145.69;100.00;52670.16;5093272;28;20198;-79
2022/11/24 01:48:00;;;;;;;6.33;1.17;;;;;;;-145.69;100.00;52642.44;5093081;28;20237;-79
2022/11/24 01:50:27;;;;;;;3.87;1.03;;;;;;;-145.69;100.00;52662.22;5093041;28;20552;-79
2022/11/24 01:52:55;;;;;;;3.83;1.00;;;;;;;-145.69;100.00;52654.31;5092608;28;20663;-79
2022/11/24 01:55:27;;;;;;;4.17;0.80;;;;;;;-145.69;100.00;52680.06;5092715;28;20208;-79
2022/11/24 01:57:59;;;;;;;5.23;0.87;;;;;;;-145.69;100.00;52693.94;5072745;28;20199;-80
2022/11/24 02:00:26;;;;;;;6.37;1.30;;;;;;;-145.69;100.00;52644.41;5072771;28;20202;-79
2022/11/24 02:02:53;;;;;;;4.90;1.13;;;;;;;-145.69;100.00;52652.34;5072265;28;20223;-80
2022/11/24 02:05:25;;;;;;;6.27;1.10;;;;;;;-145.69;100.00;52646.41;5082344;28;20284;-79
2022/11/24 02:07:55;;;;;;;6.77;1.10;;;;;;;-145.69;100.00;52670.16;5092917;28;20609;-79
2022/11/24 02:10:22;;;;;;;3.90;1.00;;;;;;;-145.69;100.00;52650.34;5092623;28;20209;-79
2022/11/24 02:12:54;;;;;;;7.57;1.07;;;;;;;-145.69;100.00;52658.28;5092578;28;20756;-80
2022/11/24 02:15:22;;;;;;;6.00;1.33;;;;;;;-145.69;100.00;52642.44;5092682;28;20201;-79
2022/11/24 02:17:49;;;;;;;6.23;1.23;;;;;;;-145.69;100.00;52638.47;5092429;28;20198;-80
2022/11/24 02:20:17;;;;;;;4.67;1.40;;;;;;;-145.69;100.00;52634.50;5092672;28;20198;-80
2022/11/24 02:22:50;;;;;;;7.80;1.30;;;;;;;-145.69;100.00;52678.09;5092683;28;20205;-79
2022/11/24 02:25:26;;;;;;;1.77;1.00;;;;;;;-145.69;100.00;52670.16;5092293;28;20233;-79
2022/11/24 02:27:56;;;;;;;5.00;1.40;;;;;;;-145.69;100.00;52668.19;5092354;28;20194;-80
2022/11/24 02:30:23;;;;;;;5.40;1.40;;;;;;;-145.69;100.00;52674.13;5092325;28;20198;-80
2022/11/24 02:32:50;;;;;;;6.27;1.47;;;;;;;-145.69;100.00;52658.28;5093377;28;20198;-79
2022/11/24 02:35:17;;;;;;;7.50;1.50;;;;;;;-145.69;100.00;52674.13;5096378;28;20221;-79
2022/11/24 02:37:43;;;;;;;4.97;1.53;;;;;;;-145.69;100.00;52680.06;5096424;28;20202;-80
2022/11/24 02:40:10;;;;;;;8.57;1.40;;;;;;;-145.69;100.00;52670.16;5096289;28;20684;-80
2022/11/24 02:42:41;;;;;;;4.37;1.20;;;;;;;-145.69;100.00;52662.22;5095757;28;20200;-80
2022/11/24 02:45:13;;;;;;;4.27;1.40;;;;;;;-145.69;100.00;52678.09;5096275;28;20229;-79
2022/11/24 02:47:39;;;;;;;8.13;1.67;;;;;;;-145.69;100.00;52666.19;5096252;28;20202;-80
2022/11/24 02:50:06;;;;;;;9.03;1.60;;;;;;;-145.69;100.00;52682.03;5096116;28;20197;-80
2022/11/24 02:52:33;;;;;;;7.20;1.37;;;;;;;-145.69;100.00;52666.19;5095726;28;20202;-80
2022/11/24 02:54:59;;;;;;;15.00;1.40;;;;;;;-145.69;100.00;52691.94;5095061;28;20660;-80
2022/11/24 02:57:26;;;;;;;12.43;1.50;;;;;;;-145.69;100.00;52654.31;5096017;28;20675;-80
2022/11/24 02:59:52;;;;;;;10.33;1.80;;;;;;;-145.69;100.00;52666.19;5096029;28;20206;-80
2022/11/24 03:02:20;;;;;;;16.77;1.93;;;;;;;-145.69;100.00;52666.19;5095488;28;20195;-80
2022/11/24 03:04:47;;;;;;;8.10;1.50;;;;;;;-145.69;100.00;52676.09;5095655;28;20251;-79
2022/11/24 03:07:13;;;;;;;8.50;1.60;;;;;;;-145.69;100.00;52678.09;5095756;28;20202;-80
2022/11/24 03:09:40;;;;;;;11.83;1.90;;;;;;;-145.69;100.00;52693.94;5095565;28;20206;-80
2022/11/24 03:12:07;;;;;;;18.45;2.42;;;;;;;-145.69;100.00;52678.09;5094212;28;20524;-80
2022/11/24 03:14:33;;;;;;;12.93;2.27;;;;;;;-145.69;100.00;52707.78;5095681;28;20202;-80
2022/11/24 03:17:00;;;;;;;15.93;2.20;;;;;;;-145.69;100.00;52674.13;5095643;28;20677;-79
2022/11/24 03:19:28;;;;;;;9.83;2.23;;;;;;;-145.69;100.00;52668.19;5095565;28;20198;-80
2022/11/24 03:21:55;;;;;;;5.83;1.50;;;;;;;-145.69;100.00;52674.13;5095488;28;20202;-80
2022/11/24 03:24:21;;;;;;;16.33;1.63;;;;;;;-145.69;100.00;52676.09;5094343;28;20214;-80
2022/11/24 03:26:48;;;;;;;21.20;2.30;;;;;;;-145.69;100.00;52729.56;5095195;28;20194;-80
2022/11/24 03:29:14;;;;;;;19.20;1.80;;;;;;;-145.69;100.00;52697.88;5095422;28;20202;-79
2022/11/24 03:31:41;;;;;;;15.50;1.97;;;;;;;-145.69;100.00;52658.28;5095132;28;20561;-79
2022/11/24 03:34:07;;;;;;;22.93;2.60;;;;;;;-145.69;100.00;52707.78;5095370;28;20234;-79
2022/11/24 03:36:35;;;;;;;10.27;2.23;;;;;;;-145.69;100.00;52693.94;5095090;28;20206;-79
2022/11/24 03:39:02;;;;;;;13.90;1.87;;;;;;;-145.69;100.00;52687.97;5095454;28;20206;-79
2022/11/24 03:41:28;;;;;;;8.47;1.70;;;;;;;-145.69;100.00;52646.41;5095073;28;20206;-79
2022/11/24 03:43:55;;;;;;;4.93;1.37;;;;;;;-145.69;100.00;52719.66;5094523;28;20222;-80
2022/11/24 03:46:21;;;;;;;9.00;1.80;;;;;;;-145.69;100.00;52686.00;5094918;28;20202;-79
2022/11/24 03:48:48;;;;;;;7.90;1.60;;;;;;;-145.69;100.00;52678.09;5094893;28;20585;-78
2022/11/24 03:51:14;;;;;;;18.37;2.37;;;;;;;-145.69;100.00;52713.72;5094406;28;20233;-80
2022/11/24 03:53:42;;;;;;;27.80;2.80;;;;;;;-145.69;100.00;52699.88;5091660;28;20556;-79
2022/11/24 03:56:09;;;;;;;16.77;2.30;;;;;;;-145.69;100.00;52709.78;5094967;28;20206;-79
2022/11/24 03:58:35;;;;;;;18.70;2.13;;;;;;;-145.69;100.00;52691.94;5094518;28;20669;-80
2022/11/24 04:01:02;;;;;;;19.80;2.37;;;;;;;-145.69;100.00;52682.03;5094846;28;20285;-80
2022/11/24 04:03:29;;;;;;;12.33;2.10;;;;;;;-145.69;100.00;52693.94;5094523;28;20574;-80
2022/11/24 04:05:55;;;;;;;8.53;1.57;;;;;;;-145.69;100.00;52686.00;5094592;28;20213;-79
2022/11/24 04:08:22;;;;;;;17.97;1.70;;;;;;;-145.69;100.00;52678.09;5094639;28;20205;-80
2022/11/24 04:10:54;;;;;;;9.93;1.40;;;;;;;-145.69;100.00;52678.09;5094874;28;20202;-81
2022/11/24 04:13:22;;;;;;;20.50;3.07;;;;;;;-145.69;100.00;52654.31;5094563;28;20198;-80
2022/11/24 04:15:49;;;;;;;13.80;2.07;;;;;;;-145.69;100.00;52654.31;5094253;28;20247;-79
2022/11/24 04:18:16;;;;;;;19.10;2.27;;;;;;;-145.69;100.00;52695.91;5094282;28;20208;-80
2022/11/24 04:20:43;;;;;;;20.27;2.37;;;;;;;-145.69;100.00;52648.38;5094507;28;20200;-80
2022/11/24 04:23:10;;;;;;;18.60;2.53;;;;;;;-145.69;100.00;52693.94;5094500;28;20557;-80
2022/11/24 04:25:37;;;;;;;22.67;2.97;;;;;;;-145.69;100.00;52676.09;5093183;28;20217;-80
2022/11/24 04:28:05;;;;;;;15.07;2.10;;;;;;;-145.69;100.00;52672.13;5093925;28;20202;-80
2022/11/24 04:30:32;;;;;;;12.40;2.00;;;;;;;-145.69;100.00;52666.19;5094101;28;20205;-79
2022/11/24 04:32:58;;;;;;;17.00;2.13;;;;;;;-145.69;100.00;52672.13;5093900;28;20205;-79
2022/11/24 04:35:25;;;;;;;13.50;2.10;;;;;;;-145.69;100.00;52674.13;5094270;28;20209;-79
2022/11/24 04:37:51;;;;;;;13.13;1.80;;;;;;;-145.69;100.00;52652.34;5094344;28;20198;-79
2022/11/24 04:40:18;;;;;;;18.17;2.23;;;;;;;-145.69;100.00;52660.25;5093727;28;20670;-79
2022/11/24 04:42:52;;;;;;;25.33;2.23;;;;;;;-145.69;100.00;52668.19;5093997;28;20568;-80
2022/11/24 04:45:20;;;;;;;23.63;1.93;;;;;;;-145.69;100.00;52650.34;5093888;28;20233;-79
2022/11/24 04:47:47;;;;;;;16.03;1.90;;;;;;;-145.69;100.00;52636.50;5094104;28;20198;-79
2022/11/24 04:50:13;;;;;;;20.90;3.03;;;;;;;-145.69;100.00;52646.41;5093822;28;20223;-79
2022/11/24 04:52:40;;;;;;;20.50;2.83;;;;;;;-145.69;100.00;52686.00;5093897;28;20197;-79
2022/11/24 04:55:08;;;;;;;22.47;2.40;;;;;;;-145.69;100.00;52642.44;5092967;28;20198;-79
2022/11/24 04:57:34;;;;;;;16.50;2.30;;;;;;;-145.69;100.00;52650.34;5093627;28;20225;-79
2022/11/24 05:00:01;;;;;;;20.97;2.20;;;;;;;-145.69;100.00;52664.22;5093368;28;20198;-79
2022/11/24 05:02:28;;;;;;;12.80;2.40;;;;;;;-145.69;100.00;52682.03;5093449;28;20201;-79
2022/11/24 05:04:55;;;;;;;14.10;1.97;;;;;;;-145.69;100.00;52678.09;5093660;28;20230;-79
2022/11/24 05:07:21;;;;;;;12.50;2.33;;;;;;;-145.69;100.00;52686.00;5093741;28;20201;-79
2022/11/24 05:12:32;;;;;;;22.73;3.20;;;;;;;-145.69;100.00;52618.66;5093303;28;20561;-79
2022/11/24 05:14:59;;;;;;;13.87;2.63;;;;;;;-145.69;100.00;52630.53;5090757;28;20198;-79
2022/11/24 05:17:30;;;;;;;24.67;3.03;;;;;;;-145.69;100.00;52678.09;5093288;28;20189;-79
2022/11/24 05:19:57;;;;;;;14.37;1.70;;;;;;;-145.69;100.00;52654.31;5093619;28;20545;-79
2022/11/24 05:22:23;;;;;;;9.20;2.30;;;;;;;-145.69;100.00;52656.28;5093241;28;20198;-80
2022/11/24 05:24:50;;;;;;;9.37;2.03;;;;;;;-145.69;100.00;52660.25;5092467;28;20229;-80
2022/11/24 05:27:16;;;;;;;23.95;4.20;;;;;;;-145.69;100.00;52668.19;5091662;28;20455;-80
2022/11/24 05:29:43;;;;;;;17.17;3.00;;;;;;;-145.69;100.00;52670.16;5092817;28;20221;-79
2022/11/24 05:32:09;;;;;;;29.60;2.83;;;;;;;-145.69;100.00;52684.03;5093066;28;20568;-79
2022/11/24 05:34:37;;;;;;;13.67;2.43;;;;;;;-145.69;100.00;52682.03;5092848;28;20593;-80
2022/11/24 05:37:04;;;;;;;14.07;2.03;;;;;;;-145.69;100.00;52658.28;5093020;28;20198;-80
2022/11/24 05:39:31;;;;;;;11.53;2.17;;;;;;;-145.69;100.00;52670.16;5092587;28;20202;-79
2022/11/24 05:41:58;;;;;;;19.13;2.20;;;;;;;-145.69;100.00;52678.09;5092381;28;20205;-80
2022/11/24 05:44:24;;;;;;;15.63;2.10;;;;;;;-145.69;100.00;52684.03;5072773;28;20226;-80
2022/11/24 05:46:52;;;;;;;16.03;2.70;;;;;;;-145.69;100.00;52654.31;5072985;28;20559;-79
2022/11/24 05:49:18;;;;;;;19.23;3.03;;;;;;;-145.69;100.00;52697.88;5072966;28;20205;-79
2022/11/24 05:51:47;;;;;;;15.77;2.63;;;;;;;-145.69;100.00;52662.22;5072565;28;20203;-79
2022/11/24 05:54:13;;;;;;;21.70;2.77;;;;;;;-145.69;100.00;52632.53;5075633;28;20277;-79
2022/11/24 05:56:40;;;;;;;14.53;2.27;;;;;;;-145.69;100.00;52666.19;5093191;28;20293;-79
2022/11/24 05:59:06;;;;;;;18.00;2.57;;;;;;;-145.69;100.00;52638.47;5092747;28;20534;-80
2022/11/24 06:01:33;;;;;;;18.33;3.03;;;;;;;-145.69;100.00;52662.22;5088537;28;20199;-79
2022/11/24 06:03:59;;;;;;;15.57;2.07;;;;;;;-145.69;100.00;52662.22;5072471;28;20198;-80
2022/11/24 06:06:26;;;;;;;11.57;2.00;;;;;;;-145.69;100.00;52664.22;5077655;28;20216;-79
2022/11/24 06:08:54;;;;;;;10.80;2.60;;;;;;;-145.69;100.00;52644.41;5096578;28;20193;-80
2022/11/24 06:11:21;;;;;;;23.87;2.53;;;;;;;-145.69;100.00;52626.59;5097128;28;20255;-79
2022/11/24 06:13:48;;;;;;;21.03;2.17;;;;;;;-145.69;100.00;52664.22;5096890;28;20232;-79
2022/11/24 06:16:15;;;;;;;23.80;2.90;;;;;;;-145.69;100.00;52624.59;5096950;28;20216;-80
2022/11/24 06:18:41;;;;;;;19.60;2.50;;;;;;;-145.69;100.00;52604.81;5096278;28;20204;-79
2022/11/24 06:21:08;;;;;;;11.57;2.23;;;;;;;-145.69;100.00;52666.19;5096395;28;20194;-79
2022/11/24 06:23:35;;;;;;;18.43;2.87;;;;;;;-145.69;100.00;52622.63;5096678;28;20194;-79
2022/11/24 06:26:03;;;;;;;19.03;2.43;;;;;;;-145.69;100.00;52630.53;5096572;28;20257;-80
2022/11/24 06:28:30;;;;;;;20.97;3.17;;;;;;;-145.69;100.00;52640.44;5096455;28;20198;-79
2022/11/24 06:31:00;;;;;;;21.33;2.60;;;;;;;-145.69;100.00;52666.19;5096184;28;20878;-79
2022/11/24 06:33:27;;;;;;;16.43;2.20;;;;;;;-145.69;100.00;52674.13;5096217;28;20557;-80
2022/11/24 06:36:00;;;;;;;16.30;2.50;;;;;;;-145.69;100.00;52622.63;5096163;28;20202;-80
2022/11/24 06:38:27;;;;;;;13.80;2.30;;;;;;;-145.69;100.00;52618.66;5096275;28;20194;-80
2022/11/24 06:40:58;;;;;;;21.37;1.87;;;;;;;-145.69;100.00;52672.13;5096612;28;20201;-80
2022/11/24 06:43:28;;;;;;;11.20;2.20;;;;;;;-145.69;100.00;52676.09;5095443;28;20560;-80
2022/11/24 06:45:54;;;;;;;14.70;2.10;;;;;;;-145.69;100.00;52666.19;5096199;28;20279;-79
2022/11/24 06:48:21;;;;;;;16.97;1.97;;;;;;;-145.69;100.00;52634.50;5095892;28;20190;-80
2022/11/24 06:50:47;;;;;;;9.83;1.93;;;;;;;-145.69;100.00;52646.41;5096361;28;20288;-80
2022/11/24 06:53:14;;;;;;;14.27;1.90;;;;;;;-145.69;100.00;52640.44;5096242;28;20284;-79
2022/11/24 06:55:41;;;;;;;13.90;2.40;;;;;;;-145.69;100.00;52636.50;5095694;28;20552;-79
2022/11/24 06:58:08;;;;;;;9.10;1.80;;;;;;;-145.69;100.00;52658.28;5096064;28;20198;-79
2022/11/24 07:00:36;;;;;;;10.77;2.20;;;;;;;-145.69;100.00;52642.44;5095781;28;20611;-79
2022/11/24 07:03:03;;;;;;;10.80;2.00;;;;;;;-145.69;100.00;52628.56;5095872;28;20679;-79
2022/11/24 07:05:29;;;;;;;15.20;2.10;;;;;;;-145.69;100.00;52630.53;5095569;28;20233;-79
2022/11/24 07:07:58;;;;;;;10.80;1.93;;;;;;;-145.69;100.00;52644.41;5095696;28;20202;-79
2022/11/24 07:10:25;;;;;;;8.47;2.13;;;;;;;-145.69;100.00;52632.53;5095267;28;20229;-80
2022/11/24 07:12:51;;;;;;;16.87;2.80;;;;;;;-145.69;100.00;52610.75;5095740;28;20217;-80
2022/11/24 07:15:17;;;;;;;13.60;1.90;;;;;;;-145.69;100.00;52626.59;5095253;28;20194;-79
2022/11/24 07:17:45;;;;;;;12.70;1.60;;;;;;;-145.69;100.00;52610.75;5095507;28;20204;-79
2022/11/24 07:20:13;;;;;;;6.27;1.67;;;;;;;-145.69;100.00;52618.66;5094799;28;20201;-78
2022/11/24 07:22:39;;;;;;;9.13;1.60;;;;;;;-145.69;100.00;52606.78;5095261;28;20206;-79
2022/11/24 07:25:08;;;;;;;10.73;1.57;;;;;;;-145.69;100.00;52654.31;5095275;28;20226;-80
2022/11/24 07:27:35;;;;;;;14.43;1.37;;;;;;;-145.69;100.00;52646.41;5094996;28;20194;-79
2022/11/24 07:30:01;;;;;;;7.13;1.50;;;;;;;-145.69;100.00;52626.59;5095165;28;20209;-79
2022/11/24 07:32:29;;;;;;;12.43;1.87;;;;;;;-145.69;100.00;52656.28;5094791;28;20200;-79
2022/11/24 07:34:57;;;;;;;9.63;1.60;;;;;;;-145.69;100.00;52624.59;5095234;28;20588;-78
2022/11/24 07:37:24;;;;;;;9.00;1.37;;;;;;;-145.69;100.00;52608.75;5094315;28;20194;-78
2022/11/24 07:39:51;;;;;;;7.37;1.87;;;;;;;-145.69;100.00;52648.38;5090551;28;20281;-81
2022/11/24 07:42:17;;;;;;;6.90;2.13;;;;;;;-145.69;100.00;52662.22;5095052;28;20278;-78
2022/11/24 07:44:44;;;;;;;10.23;1.77;;;;;;;-145.69;100.00;52646.41;5094880;28;20198;-78
2022/11/24 07:47:10;;;;;;;10.83;1.90;;;;;;;-145.69;100.00;52664.22;5095045;28;20285;-78
2022/11/24 07:49:37;;;;;;;9.67;1.23;;;;;;;-145.69;100.00;52640.44;5094290;28;20190;-79
2022/11/24 07:52:05;;;;;;;12.37;1.63;;;;;;;-145.69;100.00;52638.47;5095062;28;20208;-79
2022/11/24 07:54:31;;;;;;;11.47;1.90;;;;;;;-145.69;100.00;52646.41;5094806;28;20198;-78
2022/11/24 07:56:58;;;;;;;11.47;1.80;;;;;;;-145.69;100.00;52634.50;5094818;28;20202;-78
2022/11/24 07:59:24;;;;;;;8.50;1.27;;;;;;;-145.69;100.00;52666.19;5094998;28;20663;-78
2022/11/24 08:01:51;;;;;;;3.73;1.10;;;;;;;-145.69;100.00;52656.28;5094425;28;20277;-79
2022/11/24 08:04:17;;;;;;;6.00;0.93;;;;;;;-145.69;100.00;52642.44;5094845;28;20199;-78
2022/11/24 08:06:44;;;;;;;3.63;1.00;;;;;;;-145.69;100.00;52668.19;5090085;28;20316;-77
2022/11/24 08:09:12;;;;;;;1.07;0.70;;;;;;;-145.69;100.00;52711.75;5084222;28;20194;-78
2022/11/24 08:11:38;;;;;;;6.23;0.97;;;;;;;-145.69;100.00;52660.25;5094763;28;20202;-77
2022/11/24 08:14:05;;;;;;;4.53;1.00;;;;;;;-145.69;100.00;52662.22;5094437;28;20190;-78
2022/11/24 08:16:31;;;;;;;4.90;1.03;;;;;;;-145.69;100.00;52697.88;5094536;28;20206;-78
2022/11/24 08:18:58;;;;;;;1.93;1.10;;;;;;;-145.69;100.00;52684.03;5094261;28;20534;-78
2022/11/24 08:21:25;;;;;;;4.40;1.10;;;;;;;-145.69;100.00;52642.44;5094451;28;20209;-77
2022/11/24 08:23:54;;;;;;;4.87;1.17;;;;;;;-145.69;100.00;52686.00;5094364;28;20198;-78
2022/11/24 08:26:23;;;;;;;32.63;9.97;;;;;;;-145.69;100.00;52672.13;5094165;28;20233;-78
2022/11/24 08:28:54;;;;;;;10.00;3.67;;;;;;;-145.69;100.00;52644.41;5094176;28;20198;-78
2022/11/24 08:31:20;;;;;;;4.53;1.30;;;;;;;-145.69;100.00;52687.97;5094171;28;20280;-78
2022/11/24 08:33:47;;;;;;;3.37;1.10;;;;;;;-145.69;100.00;52682.03;5094186;28;20230;-77
2022/11/24 08:36:16;;;;;;;7.38;1.77;;;;;;;-145.69;100.00;52658.28;5092679;28;20443;-76
2022/11/24 08:38:43;;;;;;;4.90;1.67;;;;;;;-145.69;100.00;52634.50;5093232;28;20195;-78
2022/11/24 08:41:11;;;;;;;13.03;5.47;;;;;;;-145.69;100.00;52662.22;5093879;28;20226;-78
2022/11/24 08:43:40;;;;;;;4.30;1.67;;;;;;;-145.69;100.00;52699.88;5093848;28;20208;-78
2022/11/24 08:46:09;;;;;;;5.37;1.40;;;;;;;-145.69;100.00;52670.16;5093982;28;20236;-79
2022/11/24 08:48:35;;;;;;;10.77;1.70;;;;;;;-145.69;100.00;52646.41;5093288;28;20190;-79
2022/11/24 08:51:07;;;;;;;4.17;1.10;;;;;;;-145.69;100.00;52672.13;5093211;28;20191;-79
2022/11/24 08:53:33;;;;;;;5.43;1.27;;;;;;;-145.69;100.00;52682.03;5093898;28;20195;-81
2022/11/24 08:56:00;;;;;;;2.30;1.03;;;;;;;-145.69;100.00;52636.50;5099364;28;20198;-80
2022/11/24 08:58:29;;;;;;;4.20;1.00;;;;;;;-145.69;100.00;52640.44;5093451;28;20198;-80
2022/11/24 09:01:04;;;;;;;3.10;1.20;;;;;;;-145.69;100.00;52658.28;5092815;28;20190;-80
2022/11/24 09:03:31;;;;;;;2.73;0.80;;;;;;;-145.69;100.00;52632.53;5093933;28;20194;-78
2022/11/24 09:05:57;;;;;;;1.93;1.27;;;;;;;-145.69;100.00;52654.31;5093549;28;20228;-81
2022/11/24 09:08:25;;;;;;;2.07;1.03;;;;;;;-145.69;100.00;52674.13;5094329;28;20208;-82
2022/11/24 09:10:52;;;;;;;1.57;1.23;;;;;;;-145.69;100.00;52642.44;5094213;28;20684;-82
2022/11/24 09:13:18;;;;;;;3.53;2.23;;;;;;;-145.69;100.00;52642.44;5094314;28;20197;-81
2022/11/24 09:15:45;;;;;;;3.83;1.37;;;;;;;-145.69;100.00;52640.44;5093492;28;20202;-80
2022/11/24 09:18:13;;;;;;;1.67;1.30;;;;;;;-145.69;100.00;52642.44;5093371;28;20220;-81
2022/11/24 09:20:39;;;;;;;1.73;1.00;;;;;;;-145.69;100.00;52642.44;5093575;28;20243;-80
2022/11/24 09:23:06;;;;;;;3.20;1.37;;;;;;;-145.69;100.00;52638.47;5093170;28;20212;-80
2022/11/24 09:25:33;;;;;;;3.67;1.27;;;;;;;-145.69;100.00;52638.47;5093177;28;20320;-80
2022/11/24 09:27:59;;;;;;;1.83;1.00;;;;;;;-145.69;100.00;52634.50;5093331;28;20201;-80
2022/11/24 09:30:26;;;;;;;1.60;1.00;;;;;;;-145.69;100.00;52640.44;5092902;28;20190;-81
2022/11/24 09:32:54;;;;;;;1.40;0.60;;;;;;;-145.69;100.00;52644.41;5093240;28;20208;-81
2022/11/24 09:35:22;;;;;;;2.77;0.73;;;;;;;-145.69;100.00;52628.56;5093521;28;20206;-80
2022/11/24 09:37:50;;;;;;;1.07;0.70;;;;;;;-145.69;100.00;52654.31;5093369;28;20343;-80
2022/11/24 09:40:17;;;;;;;0.80;0.70;;;;;;;-145.69;100.00;52658.28;5093017;28;20660;-80
2022/11/24 09:42:54;;;;;;;3.20;1.00;;;;;;;-145.69;100.00;52650.34;5092723;28;20216;-82
2022/11/24 09:45:32;;;;;;;5.30;1.10;;;;;;;-145.69;100.00;52674.13;5092770;28;20660;-80
2022/11/24 09:48:02;;;;;;;2.87;1.00;;;;;;;-145.69;100.00;52644.41;5092872;28;20281;-82
2022/11/24 09:50:33;;;;;;;6.43;2.90;;;;;;;-145.69;100.00;52650.34;5092817;28;20276;-81
2022/11/24 09:53:05;;;;;;;2.83;1.30;;;;;;;-145.69;100.00;52638.47;5092299;28;20190;-80
2022/11/24 09:55:37;;;;;;;4.63;1.10;;;;;;;-145.69;100.00;52638.47;5092421;28;20451;-81
2022/11/24 09:58:21;;;;;;;2.17;0.77;;;;;;;-145.69;100.00;52648.38;5092717;28;20247;-80
2022/11/24 10:00:51;;;;;;;3.33;1.00;;;;;;;-145.69;100.00;52638.47;5077837;28;20296;-80
2022/11/24 10:03:24;;;;;;;4.27;1.00;;;;;;;-145.69;100.00;52650.34;5090248;28;20198;-80
2022/11/24 10:05:53;;;;;;;4.40;1.20;;;;;;;-145.69;100.00;52670.16;5088021;28;20254;-80
2022/11/24 10:08:33;;;;;;;3.20;1.10;;;;;;;-145.69;100.00;52640.44;5090468;28;20190;-80
2022/11/24 10:11:05;;;;;;;10.20;1.27;;;;;;;-145.69;100.00;52638.47;5090696;28;20194;-80
2022/11/24 10:13:58;;;;;;;6.07;1.57;;;;;;;-145.69;100.00;52654.31;5090652;28;20334;-80
2022/11/24 10:16:41;;;;;;;6.83;1.23;;;;;;;-145.69;100.00;52628.56;5092392;28;20198;-81
2022/11/24 10:19:20;;;;;;;2.53;1.10;;;;;;;-145.69;100.00;52648.38;5092814;28;20212;-81
2022/11/24 10:22:00;;;;;;;7.93;1.40;;;;;;;-145.69;100.00;52622.63;5092721;28;20713;-81
2022/11/24 10:24:59;;;;;;;7.03;1.40;;;;;;;-145.69;100.00;52646.41;5091387;28;20674;-81
2022/11/24 10:27:31;;;;;;;4.97;1.23;;;;;;;-145.69;100.00;52652.34;5091951;28;20226;-80
2022/11/24 10:29:57;;;;;;;5.83;1.50;;;;;;;-145.69;100.00;52650.34;5077191;28;20243;-81
2022/11/24 10:32:27;;;;;;;6.80;1.53;;;;;;;-145.69;100.00;52664.22;5092114;28;20194;-81
2022/11/24 10:34:59;;;;;;;7.00;1.60;;;;;;;-145.69;100.00;52646.41;5091822;28;20715;-81
2022/11/24 10:37:33;;;;;;;4.33;2.00;;;;;;;-145.69;100.00;52642.44;5092232;28;20195;-81
2022/11/24 10:40:09;;;;;;;10.03;1.90;;;;;;;-145.69;100.00;52670.16;5092258;28;20193;-81
2022/11/24 10:42:36;;;;;;;6.63;1.93;;;;;;;-145.69;100.00;52652.34;5092540;28;20190;-81
2022/11/24 10:45:11;;;;;;;9.63;1.90;;;;;;;-145.69;100.00;52654.31;5092534;28;20198;-81
2022/11/24 10:47:38;;;;;;;8.67;2.53;;;;;;;-145.69;100.00;52634.50;5092004;28;20304;-81
2022/11/24 10:50:15;;;;;;;13.07;2.57;;;;;;;-145.69;100.00;52642.44;5092400;28;20205;-81
2022/11/24 10:52:47;;;;;;;8.73;2.17;;;;;;;-145.69;100.00;52660.25;5092140;28;20689;-81
2022/11/24 10:55:14;;;;;;;9.40;2.05;;;;;;;-145.69;100.00;52622.63;5094328;28;20436;-81
2022/11/24 10:57:40;;;;;;;2.70;1.47;;;;;;;-145.69;100.00;52626.59;5095426;28;20293;-81
2022/11/24 11:00:31;;;;;;;3.93;1.40;;;;;;;-145.69;100.00;52636.50;5096262;28;20204;-81
2022/11/24 11:03:12;;;;;;;8.00;1.60;;;;;;;-145.69;100.00;52610.75;5095940;28;20564;-81
2022/11/24 11:05:41;;;;;;;5.27;1.10;;;;;;;-145.69;100.00;52604.81;5095496;28;20208;-81
2022/11/24 11:08:21;;;;;;;8.43;1.60;;;;;;;-145.69;100.00;52646.41;5095826;28;20194;-81
2022/11/24 11:10:50;;;;;;;7.70;1.43;;;;;;;-145.69;100.00;52634.50;5095265;28;20201;-81
2022/11/24 11:13:22;;;;;;;9.17;1.67;;;;;;;-145.69;100.00;52642.44;5081178;28;20206;-81
2022/11/24 11:15:48;;;;;;;8.93;1.80;;;;;;;-145.69;100.00;52628.56;5095501;28;20201;-82